sensor_id;sensor_type;location;lat;lon;timestamp;P1;durP1;ratioP1;P2;durP2;ratioP2
47153;SDS011;32907;41.412;2.164;2022-12-19T00:00:26;6.18;;;4.90;;
47153;SDS011;32907;41.412;2.164;2022-12-19T00:02:54;6.47;;;4.90;;
47153;SDS011;32907;41.412;2.164;2022-12-19T00:05:22;5.78;;;4.60;;
47153;SDS011;32907;41.412;2.164;2022-12-19T00:07:51;4.90;;;4.32;;
47153;SDS011;32907;41.412;2.164;2022-12-19T00:10:20;6.05;;;5.07;;
47153;SDS011;32907;41.412;2.164;2022-12-19T00:12:47;5.75;;;5.10;;
47153;SDS011;32907;41.412;2.164;2022-12-19T00:15:15;5.25;;;4.38;;
47153;SDS011;32907;41.412;2.164;2022-12-19T00:17:43;7.32;;;5.35;;
47153;SDS011;32907;41.412;2.164;2022-12-19T00:20:11;5.72;;;5.00;;
47153;SDS011;32907;41.412;2.164;2022-12-19T00:22:42;6.22;;;5.00;;
47153;SDS011;32907;41.412;2.164;2022-12-19T00:25:10;6.20;;;5.13;;
47153;SDS011;32907;41.412;2.164;2022-12-19T00:27:38;6.80;;;5.45;;
47153;SDS011;32907;41.412;2.164;2022-12-19T00:30:06;6.75;;;5.07;;
47153;SDS011;32907;41.412;2.164;2022-12-19T00:32:36;5.75;;;5.05;;
47153;SDS011;32907;41.412;2.164;2022-12-19T00:35:05;6.18;;;5.43;;
47153;SDS011;32907;41.412;2.164;2022-12-19T00:37:33;5.97;;;5.13;;
47153;SDS011;32907;41.412;2.164;2022-12-19T00:40:04;6.63;;;5.10;;
47153;SDS011;32907;41.412;2.164;2022-12-19T00:42:33;6.20;;;5.22;;
47153;SDS011;32907;41.412;2.164;2022-12-19T00:45:01;7.22;;;5.10;;
47153;SDS011;32907;41.412;2.164;2022-12-19T00:47:29;6.70;;;5.28;;
47153;SDS011;32907;41.412;2.164;2022-12-19T00:49:59;6.78;;;5.05;;
47153;SDS011;32907;41.412;2.164;2022-12-19T00:52:26;7.07;;;5.57;;
47153;SDS011;32907;41.412;2.164;2022-12-19T00:54:56;5.30;;;4.60;;
47153;SDS011;32907;41.412;2.164;2022-12-19T00:57:24;7.90;;;5.53;;
47153;SDS011;32907;41.412;2.164;2022-12-19T00:59:52;6.43;;;5.45;;
47153;SDS011;32907;41.412;2.164;2022-12-19T01:02:20;6.90;;;5.18;;
47153;SDS011;32907;41.412;2.164;2022-12-19T01:04:49;6.75;;;5.70;;
47153;SDS011;32907;41.412;2.164;2022-12-19T01:07:17;6.20;;;5.60;;
47153;SDS011;32907;41.412;2.164;2022-12-19T01:09:44;7.38;;;5.65;;
47153;SDS011;32907;41.412;2.164;2022-12-19T01:12:13;7.15;;;5.50;;
47153;SDS011;32907;41.412;2.164;2022-12-19T01:15:00;6.53;;;5.68;;
47153;SDS011;32907;41.412;2.164;2022-12-19T01:17:32;5.55;;;4.95;;
47153;SDS011;32907;41.412;2.164;2022-12-19T01:20:18;6.35;;;5.32;;
47153;SDS011;32907;41.412;2.164;2022-12-19T01:22:56;6.72;;;4.85;;
47153;SDS011;32907;41.412;2.164;2022-12-19T01:25:26;6.70;;;4.80;;
47153;SDS011;32907;41.412;2.164;2022-12-19T01:27:55;5.47;;;4.95;;
47153;SDS011;32907;41.412;2.164;2022-12-19T01:30:23;5.88;;;4.95;;
47153;SDS011;32907;41.412;2.164;2022-12-19T01:32:52;6.13;;;4.47;;
47153;SDS011;32907;41.412;2.164;2022-12-19T01:35:19;6.95;;;5.32;;
47153;SDS011;32907;41.412;2.164;2022-12-19T01:37:49;5.85;;;4.80;;
47153;SDS011;32907;41.412;2.164;2022-12-19T01:40:22;5.95;;;4.75;;
47153;SDS011;32907;41.412;2.164;2022-12-19T01:42:50;5.45;;;4.75;;
47153;SDS011;32907;41.412;2.164;2022-12-19T01:45:22;6.28;;;4.80;;
47153;SDS011;32907;41.412;2.164;2022-12-19T01:48:02;6.13;;;4.72;;
47153;SDS011;32907;41.412;2.164;2022-12-19T01:53:34;6.22;;;4.90;;
47153;SDS011;32907;41.412;2.164;2022-12-19T01:56:16;5.78;;;5.00;;
47153;SDS011;32907;41.412;2.164;2022-12-19T01:58:50;6.13;;;4.63;;
47153;SDS011;32907;41.412;2.164;2022-12-19T02:01:36;6.05;;;4.95;;
47153;SDS011;32907;41.412;2.164;2022-12-19T02:04:21;5.68;;;4.97;;
47153;SDS011;32907;41.412;2.164;2022-12-19T02:06:58;7.28;;;5.18;;
47153;SDS011;32907;41.412;2.164;2022-12-19T02:09:43;5.75;;;4.88;;
47153;SDS011;32907;41.412;2.164;2022-12-19T02:12:13;6.85;;;5.32;;
47153;SDS011;32907;41.412;2.164;2022-12-19T02:14:41;6.22;;;5.40;;
47153;SDS011;32907;41.412;2.164;2022-12-19T02:27:53;6.60;;;5.05;;
47153;SDS011;32907;41.412;2.164;2022-12-19T02:39:22;5.43;;;4.57;;
47153;SDS011;32907;41.412;2.164;2022-12-19T02:42:00;6.30;;;4.47;;
47153;SDS011;32907;41.412;2.164;2022-12-19T02:44:34;6.00;;;4.78;;
47153;SDS011;32907;41.412;2.164;2022-12-19T02:47:06;6.55;;;4.72;;
47153;SDS011;32907;41.412;2.164;2022-12-19T02:49:37;5.53;;;4.22;;
47153;SDS011;32907;41.412;2.164;2022-12-19T02:52:09;6.20;;;4.50;;
47153;SDS011;32907;41.412;2.164;2022-12-19T02:54:38;5.72;;;5.13;;
47153;SDS011;32907;41.412;2.164;2022-12-19T03:02:46;5.07;;;4.43;;
47153;SDS011;32907;41.412;2.164;2022-12-19T03:05:30;4.35;;;3.95;;
47153;SDS011;32907;41.412;2.164;2022-12-19T03:08:08;4.72;;;3.88;;
47153;SDS011;32907;41.412;2.164;2022-12-19T03:11:05;7.20;;;4.22;;
47153;SDS011;32907;41.412;2.164;2022-12-19T03:16:12;5.20;;;4.22;;
47153;SDS011;32907;41.412;2.164;2022-12-19T03:18:41;5.00;;;4.15;;
47153;SDS011;32907;41.412;2.164;2022-12-19T03:26:20;4.32;;;3.90;;
47153;SDS011;32907;41.412;2.164;2022-12-19T03:31:46;7.13;;;4.55;;
47153;SDS011;32907;41.412;2.164;2022-12-19T03:34:18;5.13;;;4.18;;
47153;SDS011;32907;41.412;2.164;2022-12-19T03:36:52;5.00;;;3.97;;
47153;SDS011;32907;41.412;2.164;2022-12-19T03:39:24;5.53;;;4.25;;
47153;SDS011;32907;41.412;2.164;2022-12-19T03:41:56;5.43;;;3.80;;
47153;SDS011;32907;41.412;2.164;2022-12-19T03:44:44;4.55;;;3.72;;
47153;SDS011;32907;41.412;2.164;2022-12-19T03:47:16;4.95;;;3.47;;
47153;SDS011;32907;41.412;2.164;2022-12-19T03:49:50;4.43;;;3.40;;
47153;SDS011;32907;41.412;2.164;2022-12-19T03:55:00;3.80;;;3.40;;
47153;SDS011;32907;41.412;2.164;2022-12-19T03:57:38;4.88;;;3.50;;
47153;SDS011;32907;41.412;2.164;2022-12-19T04:00:11;4.20;;;3.08;;
47153;SDS011;32907;41.412;2.164;2022-12-19T04:02:43;4.40;;;3.38;;
47153;SDS011;32907;41.412;2.164;2022-12-19T04:05:16;4.38;;;3.20;;
47153;SDS011;32907;41.412;2.164;2022-12-19T04:07:47;4.63;;;3.17;;
47153;SDS011;32907;41.412;2.164;2022-12-19T04:10:19;5.10;;;3.58;;
47153;SDS011;32907;41.412;2.164;2022-12-19T04:18:24;4.32;;;3.53;;
47153;SDS011;32907;41.412;2.164;2022-12-19T04:20:54;4.95;;;3.45;;
47153;SDS011;32907;41.412;2.164;2022-12-19T04:23:29;5.30;;;3.63;;
47153;SDS011;32907;41.412;2.164;2022-12-19T04:26:05;4.05;;;3.50;;
47153;SDS011;32907;41.412;2.164;2022-12-19T04:31:24;9.57;;;7.85;;
47153;SDS011;32907;41.412;2.164;2022-12-19T04:33:53;7.55;;;6.75;;
47153;SDS011;32907;41.412;2.164;2022-12-19T04:36:21;5.72;;;5.03;;
47153;SDS011;32907;41.412;2.164;2022-12-19T04:38:49;5.95;;;4.68;;
47153;SDS011;32907;41.412;2.164;2022-12-19T04:41:16;4.40;;;3.97;;
47153;SDS011;32907;41.412;2.164;2022-12-19T04:43:44;4.75;;;4.25;;
47153;SDS011;32907;41.412;2.164;2022-12-19T04:46:12;5.65;;;4.30;;
47153;SDS011;32907;41.412;2.164;2022-12-19T04:48:40;4.60;;;3.60;;
47153;SDS011;32907;41.412;2.164;2022-12-19T04:51:08;5.57;;;3.50;;
47153;SDS011;32907;41.412;2.164;2022-12-19T04:53:36;4.43;;;4.03;;
47153;SDS011;32907;41.412;2.164;2022-12-19T04:56:04;4.38;;;3.65;;
47153;SDS011;32907;41.412;2.164;2022-12-19T04:58:33;5.30;;;3.63;;
47153;SDS011;32907;41.412;2.164;2022-12-19T05:01:01;4.28;;;3.17;;
47153;SDS011;32907;41.412;2.164;2022-12-19T05:03:31;4.63;;;3.08;;
47153;SDS011;32907;41.412;2.164;2022-12-19T05:06:03;4.35;;;3.15;;
47153;SDS011;32907;41.412;2.164;2022-12-19T05:08:39;4.97;;;3.72;;
47153;SDS011;32907;41.412;2.164;2022-12-19T05:11:11;5.53;;;3.63;;
47153;SDS011;32907;41.412;2.164;2022-12-19T05:13:45;5.03;;;3.13;;
47153;SDS011;32907;41.412;2.164;2022-12-19T05:16:14;4.78;;;3.70;;
47153;SDS011;32907;41.412;2.164;2022-12-19T05:18:42;4.45;;;3.30;;
47153;SDS011;32907;41.412;2.164;2022-12-19T05:21:10;4.95;;;3.90;;
47153;SDS011;32907;41.412;2.164;2022-12-19T05:23:38;4.47;;;3.60;;
47153;SDS011;32907;41.412;2.164;2022-12-19T05:26:06;4.95;;;3.60;;
47153;SDS011;32907;41.412;2.164;2022-12-19T05:28:34;4.07;;;3.00;;
47153;SDS011;32907;41.412;2.164;2022-12-19T05:31:07;4.30;;;3.40;;
47153;SDS011;32907;41.412;2.164;2022-12-19T05:33:39;4.45;;;3.33;;
47153;SDS011;32907;41.412;2.164;2022-12-19T05:36:08;5.70;;;4.18;;
47153;SDS011;32907;41.412;2.164;2022-12-19T05:38:42;5.15;;;3.83;;
47153;SDS011;32907;41.412;2.164;2022-12-19T05:41:11;4.18;;;3.60;;
47153;SDS011;32907;41.412;2.164;2022-12-19T05:43:43;4.60;;;3.80;;
47153;SDS011;32907;41.412;2.164;2022-12-19T05:46:12;5.97;;;4.95;;
47153;SDS011;32907;41.412;2.164;2022-12-19T05:48:40;7.32;;;5.63;;
47153;SDS011;32907;41.412;2.164;2022-12-19T05:51:08;7.63;;;5.30;;
47153;SDS011;32907;41.412;2.164;2022-12-19T05:53:36;8.38;;;5.20;;
47153;SDS011;32907;41.412;2.164;2022-12-19T05:56:06;5.80;;;4.97;;
47153;SDS011;32907;41.412;2.164;2022-12-19T05:58:38;7.50;;;4.93;;
47153;SDS011;32907;41.412;2.164;2022-12-19T06:01:17;5.95;;;4.80;;
47153;SDS011;32907;41.412;2.164;2022-12-19T06:04:00;7.28;;;4.95;;
47153;SDS011;32907;41.412;2.164;2022-12-19T06:06:27;6.63;;;5.40;;
47153;SDS011;32907;41.412;2.164;2022-12-19T06:08:56;7.45;;;5.35;;
47153;SDS011;32907;41.412;2.164;2022-12-19T06:11:25;7.45;;;5.32;;
47153;SDS011;32907;41.412;2.164;2022-12-19T06:13:53;5.70;;;5.10;;
47153;SDS011;32907;41.412;2.164;2022-12-19T06:16:22;5.53;;;4.80;;
47153;SDS011;32907;41.412;2.164;2022-12-19T06:18:51;8.07;;;5.15;;
47153;SDS011;32907;41.412;2.164;2022-12-19T06:21:21;6.32;;;4.95;;
47153;SDS011;32907;41.412;2.164;2022-12-19T06:23:50;6.47;;;5.00;;
47153;SDS011;32907;41.412;2.164;2022-12-19T06:26:18;7.32;;;5.35;;
47153;SDS011;32907;41.412;2.164;2022-12-19T06:28:48;9.65;;;5.63;;
47153;SDS011;32907;41.412;2.164;2022-12-19T06:31:16;11.27;;;6.70;;
47153;SDS011;32907;41.412;2.164;2022-12-19T06:33:45;10.30;;;5.18;;
47153;SDS011;32907;41.412;2.164;2022-12-19T06:36:15;7.20;;;5.20;;
47153;SDS011;32907;41.412;2.164;2022-12-19T06:38:43;7.72;;;5.20;;
47153;SDS011;32907;41.412;2.164;2022-12-19T06:41:11;8.18;;;5.28;;
47153;SDS011;32907;41.412;2.164;2022-12-19T06:43:58;8.02;;;5.85;;
47153;SDS011;32907;41.412;2.164;2022-12-19T06:46:27;6.22;;;4.68;;
47153;SDS011;32907;41.412;2.164;2022-12-19T06:48:55;8.02;;;5.25;;
47153;SDS011;32907;41.412;2.164;2022-12-19T06:51:23;8.05;;;5.97;;
47153;SDS011;32907;41.412;2.164;2022-12-19T06:53:51;7.72;;;5.63;;
47153;SDS011;32907;41.412;2.164;2022-12-19T06:56:19;6.95;;;5.13;;
47153;SDS011;32907;41.412;2.164;2022-12-19T06:58:48;7.93;;;5.15;;
47153;SDS011;32907;41.412;2.164;2022-12-19T07:01:20;6.30;;;5.20;;
47153;SDS011;32907;41.412;2.164;2022-12-19T07:04:02;8.38;;;4.68;;
47153;SDS011;32907;41.412;2.164;2022-12-19T07:06:30;7.18;;;4.90;;
47153;SDS011;32907;41.412;2.164;2022-12-19T07:08:58;6.78;;;5.03;;
47153;SDS011;32907;41.412;2.164;2022-12-19T07:11:26;8.88;;;5.20;;
47153;SDS011;32907;41.412;2.164;2022-12-19T07:13:54;7.75;;;5.93;;
47153;SDS011;32907;41.412;2.164;2022-12-19T07:16:22;8.27;;;5.93;;
47153;SDS011;32907;41.412;2.164;2022-12-19T07:18:52;7.32;;;5.53;;
47153;SDS011;32907;41.412;2.164;2022-12-19T07:21:20;10.15;;;5.97;;
47153;SDS011;32907;41.412;2.164;2022-12-19T07:23:48;8.93;;;5.88;;
47153;SDS011;32907;41.412;2.164;2022-12-19T07:26:17;8.10;;;6.13;;
47153;SDS011;32907;41.412;2.164;2022-12-19T07:28:44;8.55;;;5.78;;
47153;SDS011;32907;41.412;2.164;2022-12-19T07:31:12;7.50;;;5.63;;
47153;SDS011;32907;41.412;2.164;2022-12-19T07:33:42;12.55;;;6.75;;
47153;SDS011;32907;41.412;2.164;2022-12-19T07:36:09;14.05;;;6.28;;
47153;SDS011;32907;41.412;2.164;2022-12-19T07:38:37;11.73;;;6.05;;
47153;SDS011;32907;41.412;2.164;2022-12-19T07:41:05;10.85;;;6.68;;
47153;SDS011;32907;41.412;2.164;2022-12-19T07:43:33;7.88;;;5.90;;
47153;SDS011;32907;41.412;2.164;2022-12-19T07:46:01;10.55;;;6.00;;
47153;SDS011;32907;41.412;2.164;2022-12-19T07:48:29;8.40;;;5.97;;
47153;SDS011;32907;41.412;2.164;2022-12-19T07:50:58;10.18;;;6.35;;
47153;SDS011;32907;41.412;2.164;2022-12-19T07:53:29;9.88;;;6.20;;
47153;SDS011;32907;41.412;2.164;2022-12-19T07:55:57;8.98;;;6.43;;
47153;SDS011;32907;41.412;2.164;2022-12-19T07:58:25;8.85;;;6.70;;
47153;SDS011;32907;41.412;2.164;2022-12-19T08:00:58;9.45;;;7.03;;
47153;SDS011;32907;41.412;2.164;2022-12-19T08:03:27;7.57;;;5.68;;
47153;SDS011;32907;41.412;2.164;2022-12-19T08:05:59;7.60;;;5.72;;
47153;SDS011;32907;41.412;2.164;2022-12-19T08:08:33;11.05;;;7.00;;
47153;SDS011;32907;41.412;2.164;2022-12-19T08:11:08;11.18;;;6.88;;
47153;SDS011;32907;41.412;2.164;2022-12-19T08:13:41;16.42;;;7.15;;
47153;SDS011;32907;41.412;2.164;2022-12-19T08:16:13;13.32;;;6.70;;
47153;SDS011;32907;41.412;2.164;2022-12-19T08:18:41;10.45;;;6.13;;
47153;SDS011;32907;41.412;2.164;2022-12-19T08:21:09;9.57;;;5.68;;
47153;SDS011;32907;41.412;2.164;2022-12-19T08:23:38;12.27;;;6.80;;
47153;SDS011;32907;41.412;2.164;2022-12-19T08:26:07;18.00;;;7.72;;
47153;SDS011;32907;41.412;2.164;2022-12-19T08:28:41;11.05;;;7.07;;
47153;SDS011;32907;41.412;2.164;2022-12-19T08:31:13;12.30;;;6.82;;
47153;SDS011;32907;41.412;2.164;2022-12-19T08:33:43;12.80;;;6.72;;
47153;SDS011;32907;41.412;2.164;2022-12-19T08:36:13;18.15;;;7.40;;
47153;SDS011;32907;41.412;2.164;2022-12-19T08:38:42;23.17;;;7.93;;
47153;SDS011;32907;41.412;2.164;2022-12-19T08:41:10;15.88;;;6.90;;
47153;SDS011;32907;41.412;2.164;2022-12-19T08:43:38;15.40;;;7.03;;
47153;SDS011;32907;41.412;2.164;2022-12-19T08:46:07;13.38;;;7.00;;
47153;SDS011;32907;41.412;2.164;2022-12-19T08:48:35;11.40;;;6.40;;
47153;SDS011;32907;41.412;2.164;2022-12-19T08:51:04;14.93;;;6.97;;
47153;SDS011;32907;41.412;2.164;2022-12-19T08:53:35;18.80;;;7.80;;
47153;SDS011;32907;41.412;2.164;2022-12-19T08:56:06;11.65;;;7.07;;
47153;SDS011;32907;41.412;2.164;2022-12-19T08:58:37;21.52;;;7.20;;
47153;SDS011;32907;41.412;2.164;2022-12-19T09:01:07;11.40;;;7.07;;
47153;SDS011;32907;41.412;2.164;2022-12-19T09:03:37;13.80;;;7.57;;
47153;SDS011;32907;41.412;2.164;2022-12-19T09:06:26;12.98;;;8.27;;
47153;SDS011;32907;41.412;2.164;2022-12-19T09:08:54;12.20;;;7.45;;
47153;SDS011;32907;41.412;2.164;2022-12-19T09:11:26;12.55;;;7.75;;
47153;SDS011;32907;41.412;2.164;2022-12-19T09:13:55;14.13;;;8.50;;
47153;SDS011;32907;41.412;2.164;2022-12-19T09:16:25;16.70;;;8.73;;
47153;SDS011;32907;41.412;2.164;2022-12-19T09:18:54;14.35;;;8.48;;
47153;SDS011;32907;41.412;2.164;2022-12-19T09:21:26;14.27;;;7.90;;
47153;SDS011;32907;41.412;2.164;2022-12-19T09:23:58;11.02;;;6.80;;
47153;SDS011;32907;41.412;2.164;2022-12-19T09:26:34;26.23;;;16.02;;
47153;SDS011;32907;41.412;2.164;2022-12-19T09:29:05;20.73;;;12.55;;
47153;SDS011;32907;41.412;2.164;2022-12-19T09:31:48;21.50;;;11.30;;
47153;SDS011;32907;41.412;2.164;2022-12-19T09:34:24;17.90;;;11.68;;
47153;SDS011;32907;41.412;2.164;2022-12-19T09:37:08;19.63;;;12.48;;
47153;SDS011;32907;41.412;2.164;2022-12-19T09:39:44;23.52;;;9.68;;
47153;SDS011;32907;41.412;2.164;2022-12-19T09:47:59;23.50;;;11.18;;
47153;SDS011;32907;41.412;2.164;2022-12-19T09:53:02;20.33;;;13.40;;
47153;SDS011;32907;41.412;2.164;2022-12-19T09:55:38;19.42;;;12.48;;
47153;SDS011;32907;41.412;2.164;2022-12-19T09:58:12;17.73;;;11.70;;
47153;SDS011;32907;41.412;2.164;2022-12-19T10:00:56;16.20;;;10.77;;
47153;SDS011;32907;41.412;2.164;2022-12-19T10:03:34;17.13;;;11.90;;
47153;SDS011;32907;41.412;2.164;2022-12-19T10:06:12;19.65;;;12.68;;
47153;SDS011;32907;41.412;2.164;2022-12-19T10:09:07;19.58;;;13.27;;
47153;SDS011;32907;41.412;2.164;2022-12-19T10:20:40;19.92;;;13.05;;
47153;SDS011;32907;41.412;2.164;2022-12-19T10:25:59;17.88;;;12.65;;
47153;SDS011;32907;41.412;2.164;2022-12-19T10:34:27;18.90;;;11.40;;
47153;SDS011;32907;41.412;2.164;2022-12-19T10:40:11;12.35;;;8.07;;
47153;SDS011;32907;41.412;2.164;2022-12-19T10:42:56;10.10;;;6.68;;
47153;SDS011;32907;41.412;2.164;2022-12-19T10:46:01;10.98;;;5.45;;
47153;SDS011;32907;41.412;2.164;2022-12-19T10:48:38;5.88;;;4.35;;
47153;SDS011;32907;41.412;2.164;2022-12-19T10:51:20;8.57;;;5.22;;
47153;SDS011;32907;41.412;2.164;2022-12-19T10:53:52;8.70;;;6.45;;
47153;SDS011;32907;41.412;2.164;2022-12-19T10:56:24;10.02;;;6.57;;
47153;SDS011;32907;41.412;2.164;2022-12-19T10:59:03;12.40;;;7.50;;
47153;SDS011;32907;41.412;2.164;2022-12-19T11:01:42;9.85;;;7.55;;
47153;SDS011;32907;41.412;2.164;2022-12-19T11:09:41;9.27;;;5.70;;
47153;SDS011;32907;41.412;2.164;2022-12-19T11:12:31;8.77;;;5.60;;
47153;SDS011;32907;41.412;2.164;2022-12-19T11:15:19;10.90;;;5.70;;
47153;SDS011;32907;41.412;2.164;2022-12-19T11:23:59;8.00;;;4.50;;
47153;SDS011;32907;41.412;2.164;2022-12-19T11:26:51;7.90;;;4.78;;
47153;SDS011;32907;41.412;2.164;2022-12-19T11:29:44;8.55;;;5.00;;
47153;SDS011;32907;41.412;2.164;2022-12-19T11:32:37;5.70;;;4.00;;
47153;SDS011;32907;41.412;2.164;2022-12-19T11:35:24;6.50;;;4.40;;
47153;SDS011;32907;41.412;2.164;2022-12-19T11:38:04;7.15;;;4.10;;
47153;SDS011;32907;41.412;2.164;2022-12-19T11:40:42;6.28;;;3.70;;
47153;SDS011;32907;41.412;2.164;2022-12-19T11:46:24;8.00;;;4.13;;
47153;SDS011;32907;41.412;2.164;2022-12-19T11:49:40;8.23;;;3.97;;
47153;SDS011;32907;41.412;2.164;2022-12-19T11:57:54;8.07;;;4.93;;
47153;SDS011;32907;41.412;2.164;2022-12-19T12:00:22;9.68;;;5.53;;
47153;SDS011;32907;41.412;2.164;2022-12-19T12:05:47;6.65;;;4.85;;
47153;SDS011;32907;41.412;2.164;2022-12-19T12:11:31;9.68;;;5.93;;
47153;SDS011;32907;41.412;2.164;2022-12-19T12:21:04;11.15;;;6.35;;
47153;SDS011;32907;41.412;2.164;2022-12-19T12:30:26;18.63;;;10.68;;
47153;SDS011;32907;41.412;2.164;2022-12-19T12:40:07;13.20;;;9.02;;
47153;SDS011;32907;41.412;2.164;2022-12-19T12:51:10;27.13;;;9.40;;
47153;SDS011;32907;41.412;2.164;2022-12-19T12:53:43;14.05;;;9.13;;
47153;SDS011;32907;41.412;2.164;2022-12-19T12:56:13;15.77;;;9.05;;
47153;SDS011;32907;41.412;2.164;2022-12-19T12:59:01;11.65;;;7.43;;
47153;SDS011;32907;41.412;2.164;2022-12-19T13:01:33;14.93;;;8.23;;
47153;SDS011;32907;41.412;2.164;2022-12-19T13:06:38;12.00;;;7.82;;
47153;SDS011;32907;41.412;2.164;2022-12-19T13:11:39;11.50;;;8.05;;
47153;SDS011;32907;41.412;2.164;2022-12-19T13:17:06;13.77;;;6.80;;
47153;SDS011;32907;41.412;2.164;2022-12-19T13:19:55;9.10;;;6.30;;
47153;SDS011;32907;41.412;2.164;2022-12-19T13:22:45;8.95;;;6.32;;
47153;SDS011;32907;41.412;2.164;2022-12-19T13:30:29;9.10;;;5.95;;
47153;SDS011;32907;41.412;2.164;2022-12-19T13:33:18;11.65;;;5.65;;
47153;SDS011;32907;41.412;2.164;2022-12-19T13:35:46;8.93;;;6.35;;
47153;SDS011;32907;41.412;2.164;2022-12-19T13:41:38;10.00;;;6.90;;
47153;SDS011;32907;41.412;2.164;2022-12-19T13:44:27;9.65;;;6.70;;
47153;SDS011;32907;41.412;2.164;2022-12-19T13:47:09;10.30;;;6.93;;
47153;SDS011;32907;41.412;2.164;2022-12-19T13:49:46;13.30;;;8.02;;
47153;SDS011;32907;41.412;2.164;2022-12-19T13:52:16;13.98;;;7.10;;
47153;SDS011;32907;41.412;2.164;2022-12-19T13:54:49;10.80;;;7.53;;
47153;SDS011;32907;41.412;2.164;2022-12-19T13:57:25;19.20;;;8.60;;
47153;SDS011;32907;41.412;2.164;2022-12-19T13:59:58;10.23;;;7.22;;
47153;SDS011;32907;41.412;2.164;2022-12-19T14:02:40;13.35;;;6.53;;
47153;SDS011;32907;41.412;2.164;2022-12-19T14:08:21;8.98;;;6.30;;
47153;SDS011;32907;41.412;2.164;2022-12-19T14:10:51;9.85;;;6.95;;
47153;SDS011;32907;41.412;2.164;2022-12-19T14:13:44;8.32;;;6.00;;
47153;SDS011;32907;41.412;2.164;2022-12-19T14:16:48;8.98;;;5.82;;
47153;SDS011;32907;41.412;2.164;2022-12-19T14:21:45;7.65;;;4.68;;
47153;SDS011;32907;41.412;2.164;2022-12-19T14:27:02;6.65;;;4.30;;
47153;SDS011;32907;41.412;2.164;2022-12-19T14:29:53;6.63;;;4.18;;
47153;SDS011;32907;41.412;2.164;2022-12-19T14:32:41;6.55;;;3.90;;
47153;SDS011;32907;41.412;2.164;2022-12-19T14:35:32;7.18;;;4.22;;
47153;SDS011;32907;41.412;2.164;2022-12-19T14:38:26;8.43;;;5.07;;
47153;SDS011;32907;41.412;2.164;2022-12-19T14:44:14;5.97;;;3.08;;
47153;SDS011;32907;41.412;2.164;2022-12-19T14:47:09;5.72;;;2.97;;
47153;SDS011;32907;41.412;2.164;2022-12-19T14:49:59;9.30;;;2.63;;
47153;SDS011;32907;41.412;2.164;2022-12-19T14:52:48;6.00;;;2.10;;
47153;SDS011;32907;41.412;2.164;2022-12-19T14:55:37;6.43;;;2.40;;
47153;SDS011;32907;41.412;2.164;2022-12-19T14:58:30;5.70;;;2.38;;
47153;SDS011;32907;41.412;2.164;2022-12-19T15:01:24;6.82;;;2.15;;
47153;SDS011;32907;41.412;2.164;2022-12-19T15:03:54;4.80;;;2.33;;
47153;SDS011;32907;41.412;2.164;2022-12-19T15:06:47;4.80;;;2.00;;
47153;SDS011;32907;41.412;2.164;2022-12-19T15:13:21;3.88;;;2.22;;
47153;SDS011;32907;41.412;2.164;2022-12-19T15:16:23;3.97;;;2.23;;
47153;SDS011;32907;41.412;2.164;2022-12-19T15:18:56;5.13;;;2.42;;
47153;SDS011;32907;41.412;2.164;2022-12-19T15:21:25;3.83;;;2.05;;
47153;SDS011;32907;41.412;2.164;2022-12-19T15:23:54;4.70;;;2.58;;
47153;SDS011;32907;41.412;2.164;2022-12-19T15:26:29;4.07;;;2.75;;
47153;SDS011;32907;41.412;2.164;2022-12-19T15:28:59;3.90;;;2.67;;
47153;SDS011;32907;41.412;2.164;2022-12-19T15:31:36;4.00;;;2.50;;
47153;SDS011;32907;41.412;2.164;2022-12-19T15:34:16;4.82;;;2.60;;
47153;SDS011;32907;41.412;2.164;2022-12-19T15:37:08;4.60;;;2.92;;
47153;SDS011;32907;41.412;2.164;2022-12-19T15:39:37;5.25;;;3.40;;
47153;SDS011;32907;41.412;2.164;2022-12-19T15:42:20;7.90;;;4.07;;
47153;SDS011;32907;41.412;2.164;2022-12-19T15:44:51;5.45;;;4.18;;
47153;SDS011;32907;41.412;2.164;2022-12-19T15:47:32;7.25;;;4.40;;
47153;SDS011;32907;41.412;2.164;2022-12-19T15:50:12;7.95;;;4.43;;
47153;SDS011;32907;41.412;2.164;2022-12-19T15:52:43;7.70;;;4.40;;
47153;SDS011;32907;41.412;2.164;2022-12-19T15:55:15;7.93;;;4.30;;
47153;SDS011;32907;41.412;2.164;2022-12-19T15:57:45;6.53;;;4.43;;
47153;SDS011;32907;41.412;2.164;2022-12-19T16:00:16;7.60;;;3.88;;
47153;SDS011;32907;41.412;2.164;2022-12-19T16:02:50;6.93;;;3.58;;
47153;SDS011;32907;41.412;2.164;2022-12-19T16:05:40;6.05;;;3.80;;
47153;SDS011;32907;41.412;2.164;2022-12-19T16:08:16;6.78;;;3.72;;
47153;SDS011;32907;41.412;2.164;2022-12-19T16:10:48;7.70;;;4.03;;
47153;SDS011;32907;41.412;2.164;2022-12-19T16:13:29;11.73;;;4.88;;
47153;SDS011;32907;41.412;2.164;2022-12-19T16:16:02;7.93;;;4.25;;
47153;SDS011;32907;41.412;2.164;2022-12-19T16:18:41;6.80;;;3.92;;
47153;SDS011;32907;41.412;2.164;2022-12-19T16:21:18;9.60;;;4.20;;
47153;SDS011;32907;41.412;2.164;2022-12-19T16:23:57;7.38;;;4.00;;
47153;SDS011;32907;41.412;2.164;2022-12-19T16:26:32;4.63;;;3.72;;
47153;SDS011;32907;41.412;2.164;2022-12-19T16:29:02;6.65;;;4.30;;
47153;SDS011;32907;41.412;2.164;2022-12-19T16:31:30;5.18;;;3.85;;
47153;SDS011;32907;41.412;2.164;2022-12-19T16:33:59;6.65;;;4.18;;
47153;SDS011;32907;41.412;2.164;2022-12-19T16:36:28;5.75;;;4.07;;
47153;SDS011;32907;41.412;2.164;2022-12-19T16:38:56;6.43;;;4.68;;
47153;SDS011;32907;41.412;2.164;2022-12-19T16:41:24;6.18;;;4.97;;
47153;SDS011;32907;41.412;2.164;2022-12-19T16:43:52;8.77;;;4.90;;
47153;SDS011;32907;41.412;2.164;2022-12-19T16:46:21;6.43;;;4.40;;
47153;SDS011;32907;41.412;2.164;2022-12-19T16:48:52;6.68;;;4.93;;
47153;SDS011;32907;41.412;2.164;2022-12-19T16:51:21;7.32;;;4.30;;
47153;SDS011;32907;41.412;2.164;2022-12-19T16:53:52;6.82;;;4.07;;
47153;SDS011;32907;41.412;2.164;2022-12-19T16:58:56;6.03;;;4.72;;
47153;SDS011;32907;41.412;2.164;2022-12-19T17:01:27;7.82;;;5.45;;
47153;SDS011;32907;41.412;2.164;2022-12-19T17:03:56;7.88;;;5.28;;
47153;SDS011;32907;41.412;2.164;2022-12-19T17:06:24;8.43;;;5.53;;
47153;SDS011;32907;41.412;2.164;2022-12-19T17:08:52;7.10;;;5.03;;
47153;SDS011;32907;41.412;2.164;2022-12-19T17:11:22;7.97;;;5.22;;
47153;SDS011;32907;41.412;2.164;2022-12-19T17:13:54;7.40;;;4.85;;
47153;SDS011;32907;41.412;2.164;2022-12-19T17:16:28;10.55;;;6.07;;
47153;SDS011;32907;41.412;2.164;2022-12-19T17:18:57;8.05;;;5.93;;
47153;SDS011;32907;41.412;2.164;2022-12-19T17:21:25;8.38;;;5.97;;
47153;SDS011;32907;41.412;2.164;2022-12-19T17:23:53;7.10;;;6.28;;
47153;SDS011;32907;41.412;2.164;2022-12-19T17:26:21;8.65;;;6.00;;
47153;SDS011;32907;41.412;2.164;2022-12-19T17:28:49;7.85;;;5.95;;
47153;SDS011;32907;41.412;2.164;2022-12-19T17:31:26;7.13;;;5.88;;
47153;SDS011;32907;41.412;2.164;2022-12-19T17:33:56;7.03;;;5.82;;
47153;SDS011;32907;41.412;2.164;2022-12-19T17:36:25;7.55;;;5.63;;
47153;SDS011;32907;41.412;2.164;2022-12-19T17:39:01;7.73;;;5.97;;
47153;SDS011;32907;41.412;2.164;2022-12-19T17:41:29;8.13;;;6.10;;
47153;SDS011;32907;41.412;2.164;2022-12-19T17:43:57;7.65;;;5.72;;
47153;SDS011;32907;41.412;2.164;2022-12-19T17:46:25;8.38;;;7.03;;
47153;SDS011;32907;41.412;2.164;2022-12-19T17:48:53;7.18;;;5.82;;
47153;SDS011;32907;41.412;2.164;2022-12-19T17:51:21;8.77;;;6.18;;
47153;SDS011;32907;41.412;2.164;2022-12-19T17:53:50;9.73;;;6.80;;
47153;SDS011;32907;41.412;2.164;2022-12-19T17:56:18;7.47;;;5.97;;
47153;SDS011;32907;41.412;2.164;2022-12-19T17:58:47;8.85;;;6.10;;
47153;SDS011;32907;41.412;2.164;2022-12-19T18:01:19;8.35;;;6.60;;
47153;SDS011;32907;41.412;2.164;2022-12-19T18:03:49;8.85;;;6.25;;
47153;SDS011;32907;41.412;2.164;2022-12-19T18:06:20;8.65;;;6.43;;
47153;SDS011;32907;41.412;2.164;2022-12-19T18:08:48;9.25;;;6.05;;